Strona główna
Zdjęcia satelitarne 10-dni prognozyKlimatMeteorologia morska Cyklony Błyskawica LotniskoFAQ Gazetka O
Pogoda : Europa Afryka Ameryka Północna Ameryka Południowa Azja Australia-Oceania Inny
Języki Kontakt

Łódź, Polska

Port lotniczy Łódź-Lublinek

Szerokość geograficzna: 51-43-19N, Długość geograficzna: 019-23-53E, wysokość: 184 m


METAR: EPLL 301800Z 27006KT CAVOK 16/08 Q1013
TAF: EPLL 301730Z 3018/3118 26008KT CAVOK

czas: 20:18 (18:18 UTC)

Aktualna obserwacja pogody

Raport powstał 18 minut temu, godzina 18:00 UTC
Wiatr 6 kt od zachód
Temperatura 16°C
Wilgotność 59%
Ciśnienie 1013 hPa
Widzialność 10 km lub więcej
Brak chmur poniżej 1500 m i brak chmur cumulonimbus

Jednostka miary

Prognoza

Raport powstał 48 minut temu, godzina 17:30 UTC
Prognoza ważna od 30 godzina 18 UTC do 31 godzina 18 UTC
Wiatr 8 kt od zachód
Widzialność 10 km lub więcej
Brak chmur poniżej 1500 m i brak chmur cumulonimbus
Informacje na tej stronie internetowej podlegają klauzuli o wyłączeniu odpowiedzialności
Pogoda : Europa Afryka Ameryka Północna Ameryka Południowa Azja Australia-Oceania Inny
Zdjęcia satelitarne 10-dni prognozyKlimatMeteorologia morska Cyklony Błyskawica LotniskoFAQ Języki Kontakt Gazetka O